sensor_id;sensor_type;location;lat;lon;timestamp;temperature;humidity
13052;DHT22;6592;47.484;9.726;2022-07-10T00:00:55;18.40;99.90
13052;DHT22;6592;47.484;9.726;2022-07-10T00:03:23;18.40;99.90
13052;DHT22;6592;47.484;9.726;2022-07-10T00:05:51;18.40;99.90
13052;DHT22;6592;47.484;9.726;2022-07-10T00:08:19;18.30;99.90
13052;DHT22;6592;47.484;9.726;2022-07-10T00:10:47;18.30;99.90
13052;DHT22;6592;47.484;9.726;2022-07-10T00:13:17;18.40;99.90
13052;DHT22;6592;47.484;9.726;2022-07-10T00:15:45;18.40;99.90
13052;DHT22;6592;47.484;9.726;2022-07-10T00:18:13;18.40;99.90
13052;DHT22;6592;47.484;9.726;2022-07-10T00:20:41;18.40;99.90
13052;DHT22;6592;47.484;9.726;2022-07-10T00:23:10;18.40;99.90
13052;DHT22;6592;47.484;9.726;2022-07-10T00:25:38;18.40;99.90
13052;DHT22;6592;47.484;9.726;2022-07-10T00:28:06;18.40;99.90
13052;DHT22;6592;47.484;9.726;2022-07-10T00:30:36;18.40;99.90
13052;DHT22;6592;47.484;9.726;2022-07-10T00:33:04;18.30;99.90
13052;DHT22;6592;47.484;9.726;2022-07-10T00:35:32;18.20;99.90
13052;DHT22;6592;47.484;9.726;2022-07-10T00:38:00;18.20;99.90
13052;DHT22;6592;47.484;9.726;2022-07-10T00:40:29;18.10;99.90
13052;DHT22;6592;47.484;9.726;2022-07-10T00:42:57;18.10;99.90
13052;DHT22;6592;47.484;9.726;2022-07-10T00:45:25;18.10;99.90
13052;DHT22;6592;47.484;9.726;2022-07-10T00:47:55;18.10;99.90
13052;DHT22;6592;47.484;9.726;2022-07-10T00:50:23;18.20;99.90
13052;DHT22;6592;47.484;9.726;2022-07-10T00:52:51;18.20;99.90
13052;DHT22;6592;47.484;9.726;2022-07-10T00:55:19;18.20;99.90
13052;DHT22;6592;47.484;9.726;2022-07-10T00:57:47;18.20;99.90
13052;DHT22;6592;47.484;9.726;2022-07-10T01:00:16;18.20;99.90
13052;DHT22;6592;47.484;9.726;2022-07-10T01:02:45;18.40;99.90
13052;DHT22;6592;47.484;9.726;2022-07-10T01:05:15;18.30;99.90
13052;DHT22;6592;47.484;9.726;2022-07-10T01:07:43;18.30;99.90
13052;DHT22;6592;47.484;9.726;2022-07-10T01:10:11;18.30;99.90
13052;DHT22;6592;47.484;9.726;2022-07-10T01:12:39;18.30;99.90
13052;DHT22;6592;47.484;9.726;2022-07-10T01:15:07;18.30;99.90
13052;DHT22;6592;47.484;9.726;2022-07-10T01:17:36;18.30;99.90
13052;DHT22;6592;47.484;9.726;2022-07-10T01:20:05;18.10;99.90
13052;DHT22;6592;47.484;9.726;2022-07-10T01:22:35;18.30;99.90
13052;DHT22;6592;47.484;9.726;2022-07-10T01:25:03;18.30;99.90
13052;DHT22;6592;47.484;9.726;2022-07-10T01:27:32;18.30;99.90
13052;DHT22;6592;47.484;9.726;2022-07-10T01:30:00;18.40;99.90
13052;DHT22;6592;47.484;9.726;2022-07-10T01:32:35;18.40;99.90
13052;DHT22;6592;47.484;9.726;2022-07-10T01:35:04;18.40;99.90
13052;DHT22;6592;47.484;9.726;2022-07-10T01:37:32;18.50;99.90
13052;DHT22;6592;47.484;9.726;2022-07-10T01:40:03;18.40;99.90
13052;DHT22;6592;47.484;9.726;2022-07-10T01:42:31;18.40;99.90
13052;DHT22;6592;47.484;9.726;2022-07-10T01:44:59;18.40;99.90
13052;DHT22;6592;47.484;9.726;2022-07-10T01:47:32;18.40;99.90
13052;DHT22;6592;47.484;9.726;2022-07-10T01:50:01;18.40;99.90
13052;DHT22;6592;47.484;9.726;2022-07-10T01:52:29;18.40;99.90
13052;DHT22;6592;47.484;9.726;2022-07-10T01:54:57;18.50;99.90
13052;DHT22;6592;47.484;9.726;2022-07-10T01:57:26;18.30;99.90
13052;DHT22;6592;47.484;9.726;2022-07-10T01:59:54;18.50;99.90
13052;DHT22;6592;47.484;9.726;2022-07-10T02:02:23;18.50;99.90
13052;DHT22;6592;47.484;9.726;2022-07-10T02:04:51;18.50;99.90
13052;DHT22;6592;47.484;9.726;2022-07-10T02:07:18;18.50;99.90
13052;DHT22;6592;47.484;9.726;2022-07-10T02:09:49;18.50;99.90
13052;DHT22;6592;47.484;9.726;2022-07-10T02:12:17;18.50;99.90
13052;DHT22;6592;47.484;9.726;2022-07-10T02:14:46;18.50;99.90
13052;DHT22;6592;47.484;9.726;2022-07-10T02:17:14;18.30;99.90
13052;DHT22;6592;47.484;9.726;2022-07-10T02:19:44;18.20;99.90
13052;DHT22;6592;47.484;9.726;2022-07-10T02:22:12;18.20;99.90
13052;DHT22;6592;47.484;9.726;2022-07-10T02:24:40;18.20;99.90
13052;DHT22;6592;47.484;9.726;2022-07-10T02:27:08;18.20;99.90
13052;DHT22;6592;47.484;9.726;2022-07-10T02:29:36;18.10;99.90
13052;DHT22;6592;47.484;9.726;2022-07-10T02:32:07;18.10;99.90
13052;DHT22;6592;47.484;9.726;2022-07-10T02:34:35;18.10;99.90
13052;DHT22;6592;47.484;9.726;2022-07-10T02:37:04;18.10;99.90
13052;DHT22;6592;47.484;9.726;2022-07-10T02:39:32;18.10;99.90
13052;DHT22;6592;47.484;9.726;2022-07-10T02:42:01;18.10;99.90
13052;DHT22;6592;47.484;9.726;2022-07-10T02:44:29;18.10;99.90
13052;DHT22;6592;47.484;9.726;2022-07-10T02:46:57;18.10;99.90
13052;DHT22;6592;47.484;9.726;2022-07-10T02:49:28;18.10;99.90
13052;DHT22;6592;47.484;9.726;2022-07-10T02:51:56;18.10;99.90
13052;DHT22;6592;47.484;9.726;2022-07-10T02:54:24;18.10;99.90
13052;DHT22;6592;47.484;9.726;2022-07-10T02:56:52;18.20;99.90
13052;DHT22;6592;47.484;9.726;2022-07-10T02:59:21;18.20;99.90
13052;DHT22;6592;47.484;9.726;2022-07-10T03:01:49;18.10;99.90
13052;DHT22;6592;47.484;9.726;2022-07-10T03:04:17;18.10;99.90
13052;DHT22;6592;47.484;9.726;2022-07-10T03:06:47;18.00;99.90
13052;DHT22;6592;47.484;9.726;2022-07-10T03:09:15;18.00;99.90
13052;DHT22;6592;47.484;9.726;2022-07-10T03:11:43;18.00;99.90
13052;DHT22;6592;47.484;9.726;2022-07-10T03:14:11;18.00;99.90
13052;DHT22;6592;47.484;9.726;2022-07-10T03:16:39;18.00;99.90
13052;DHT22;6592;47.484;9.726;2022-07-10T03:19:07;18.00;99.90
13052;DHT22;6592;47.484;9.726;2022-07-10T03:21:35;18.10;99.90
13052;DHT22;6592;47.484;9.726;2022-07-10T03:24:05;18.10;99.90
13052;DHT22;6592;47.484;9.726;2022-07-10T03:26:33;18.00;99.90
13052;DHT22;6592;47.484;9.726;2022-07-10T03:29:01;18.00;99.90
13052;DHT22;6592;47.484;9.726;2022-07-10T03:31:29;18.00;99.90
13052;DHT22;6592;47.484;9.726;2022-07-10T03:33:58;18.00;99.90
13052;DHT22;6592;47.484;9.726;2022-07-10T03:36:26;18.00;99.90
13052;DHT22;6592;47.484;9.726;2022-07-10T03:38:54;18.00;99.90
13052;DHT22;6592;47.484;9.726;2022-07-10T03:41:24;18.00;99.90
13052;DHT22;6592;47.484;9.726;2022-07-10T03:43:52;17.90;99.90
13052;DHT22;6592;47.484;9.726;2022-07-10T03:46:20;17.90;99.90
13052;DHT22;6592;47.484;9.726;2022-07-10T03:48:48;17.90;99.90
13052;DHT22;6592;47.484;9.726;2022-07-10T03:51:16;17.90;99.90
13052;DHT22;6592;47.484;9.726;2022-07-10T03:53:44;17.90;99.90
13052;DHT22;6592;47.484;9.726;2022-07-10T03:56:13;18.00;99.90
13052;DHT22;6592;47.484;9.726;2022-07-10T03:59:03;18.00;99.90
13052;DHT22;6592;47.484;9.726;2022-07-10T04:01:30;18.00;99.90
13052;DHT22;6592;47.484;9.726;2022-07-10T04:03:58;18.00;99.90
13052;DHT22;6592;47.484;9.726;2022-07-10T04:06:27;18.10;99.90
13052;DHT22;6592;47.484;9.726;2022-07-10T04:08:55;18.10;99.90
13052;DHT22;6592;47.484;9.726;2022-07-10T04:11:23;18.10;99.90
13052;DHT22;6592;47.484;9.726;2022-07-10T04:13:52;18.00;99.90
13052;DHT22;6592;47.484;9.726;2022-07-10T04:16:21;18.00;99.90
13052;DHT22;6592;47.484;9.726;2022-07-10T04:18:50;18.00;99.90
13052;DHT22;6592;47.484;9.726;2022-07-10T04:21:18;18.10;99.90
13052;DHT22;6592;47.484;9.726;2022-07-10T04:23:46;18.10;99.90
13052;DHT22;6592;47.484;9.726;2022-07-10T04:26:14;18.10;99.90
13052;DHT22;6592;47.484;9.726;2022-07-10T04:28:42;18.10;99.90
13052;DHT22;6592;47.484;9.726;2022-07-10T04:31:10;18.20;99.90
13052;DHT22;6592;47.484;9.726;2022-07-10T04:33:40;18.20;99.90
13052;DHT22;6592;47.484;9.726;2022-07-10T04:36:08;18.20;99.90
13052;DHT22;6592;47.484;9.726;2022-07-10T04:38:36;18.10;99.90
13052;DHT22;6592;47.484;9.726;2022-07-10T04:41:04;18.30;99.90
13052;DHT22;6592;47.484;9.726;2022-07-10T04:43:33;18.30;99.90
13052;DHT22;6592;47.484;9.726;2022-07-10T04:46:01;18.40;99.90
13052;DHT22;6592;47.484;9.726;2022-07-10T04:48:29;18.50;99.90
13052;DHT22;6592;47.484;9.726;2022-07-10T04:50:58;18.60;99.90
13052;DHT22;6592;47.484;9.726;2022-07-10T04:53:26;18.70;99.90
13052;DHT22;6592;47.484;9.726;2022-07-10T04:55:54;18.70;99.90
13052;DHT22;6592;47.484;9.726;2022-07-10T04:58:22;18.80;99.90
13052;DHT22;6592;47.484;9.726;2022-07-10T05:00:50;18.70;99.90
13052;DHT22;6592;47.484;9.726;2022-07-10T05:03:18;18.90;99.90
13052;DHT22;6592;47.484;9.726;2022-07-10T05:05:47;18.90;99.90
13052;DHT22;6592;47.484;9.726;2022-07-10T05:08:16;19.00;99.90
13052;DHT22;6592;47.484;9.726;2022-07-10T05:10:44;19.10;99.90
13052;DHT22;6592;47.484;9.726;2022-07-10T05:13:12;19.20;99.90
13052;DHT22;6592;47.484;9.726;2022-07-10T05:15:40;19.20;99.90
13052;DHT22;6592;47.484;9.726;2022-07-10T05:18:09;19.30;99.90
13052;DHT22;6592;47.484;9.726;2022-07-10T05:20:37;19.30;99.90
13052;DHT22;6592;47.484;9.726;2022-07-10T05:23:08;19.20;99.90
13052;DHT22;6592;47.484;9.726;2022-07-10T05:25:37;19.20;99.90
13052;DHT22;6592;47.484;9.726;2022-07-10T05:28:06;19.20;99.90
13052;DHT22;6592;47.484;9.726;2022-07-10T05:30:34;19.20;99.90
13052;DHT22;6592;47.484;9.726;2022-07-10T05:33:02;19.10;99.90
13052;DHT22;6592;47.484;9.726;2022-07-10T05:35:30;19.10;99.90
13052;DHT22;6592;47.484;9.726;2022-07-10T05:37:58;19.10;99.90
13052;DHT22;6592;47.484;9.726;2022-07-10T05:40:26;19.00;99.90
13052;DHT22;6592;47.484;9.726;2022-07-10T05:42:55;19.00;99.90
13052;DHT22;6592;47.484;9.726;2022-07-10T05:45:24;18.80;99.90
13052;DHT22;6592;47.484;9.726;2022-07-10T05:47:52;19.00;99.90
13052;DHT22;6592;47.484;9.726;2022-07-10T05:50:20;18.90;99.90
13052;DHT22;6592;47.484;9.726;2022-07-10T05:52:48;18.90;99.90
13052;DHT22;6592;47.484;9.726;2022-07-10T05:55:16;18.70;99.90
13052;DHT22;6592;47.484;9.726;2022-07-10T05:57:44;18.90;99.90
13052;DHT22;6592;47.484;9.726;2022-07-10T06:00:14;18.80;99.90
13052;DHT22;6592;47.484;9.726;2022-07-10T06:02:42;18.80;99.90
13052;DHT22;6592;47.484;9.726;2022-07-10T06:05:10;18.80;99.90
13052;DHT22;6592;47.484;9.726;2022-07-10T06:07:38;18.80;99.90
13052;DHT22;6592;47.484;9.726;2022-07-10T06:10:06;18.80;99.90
13052;DHT22;6592;47.484;9.726;2022-07-10T06:12:34;18.80;99.90
13052;DHT22;6592;47.484;9.726;2022-07-10T06:15:04;18.80;99.90
13052;DHT22;6592;47.484;9.726;2022-07-10T06:17:33;18.70;99.90
13052;DHT22;6592;47.484;9.726;2022-07-10T06:20:01;18.60;99.90
13052;DHT22;6592;47.484;9.726;2022-07-10T06:22:29;18.70;99.90
13052;DHT22;6592;47.484;9.726;2022-07-10T06:25:01;18.70;99.90
13052;DHT22;6592;47.484;9.726;2022-07-10T06:27:30;18.70;99.90
13052;DHT22;6592;47.484;9.726;2022-07-10T06:29:58;18.80;99.90
13052;DHT22;6592;47.484;9.726;2022-07-10T06:32:26;18.80;99.90
13052;DHT22;6592;47.484;9.726;2022-07-10T06:34:56;18.90;99.90
13052;DHT22;6592;47.484;9.726;2022-07-10T06:37:24;19.00;99.90
13052;DHT22;6592;47.484;9.726;2022-07-10T06:39:52;19.20;99.90
13052;DHT22;6592;47.484;9.726;2022-07-10T06:42:20;19.30;99.90
13052;DHT22;6592;47.484;9.726;2022-07-10T06:44:48;19.50;99.90
13052;DHT22;6592;47.484;9.726;2022-07-10T06:47:17;19.60;99.90
13052;DHT22;6592;47.484;9.726;2022-07-10T06:50:04;19.70;99.90
13052;DHT22;6592;47.484;9.726;2022-07-10T06:52:33;19.80;99.90
13052;DHT22;6592;47.484;9.726;2022-07-10T06:55:01;19.90;99.90
13052;DHT22;6592;47.484;9.726;2022-07-10T06:57:30;19.90;99.90
13052;DHT22;6592;47.484;9.726;2022-07-10T06:59:58;20.00;99.90
13052;DHT22;6592;47.484;9.726;2022-07-10T07:02:26;20.20;99.90
13052;DHT22;6592;47.484;9.726;2022-07-10T07:04:54;20.20;99.90
13052;DHT22;6592;47.484;9.726;2022-07-10T07:07:24;20.40;99.90
13052;DHT22;6592;47.484;9.726;2022-07-10T07:09:52;20.50;99.90
13052;DHT22;6592;47.484;9.726;2022-07-10T07:12:20;20.60;99.90
13052;DHT22;6592;47.484;9.726;2022-07-10T07:14:48;20.80;99.90
13052;DHT22;6592;47.484;9.726;2022-07-10T07:17:16;20.90;99.90
13052;DHT22;6592;47.484;9.726;2022-07-10T07:19:50;21.20;99.90
13052;DHT22;6592;47.484;9.726;2022-07-10T07:22:38;21.40;99.90
13052;DHT22;6592;47.484;9.726;2022-07-10T07:25:23;21.60;99.90
13052;DHT22;6592;47.484;9.726;2022-07-10T07:27:51;21.70;99.90
13052;DHT22;6592;47.484;9.726;2022-07-10T07:30:19;21.70;99.90
13052;DHT22;6592;47.484;9.726;2022-07-10T07:32:47;21.90;99.90
13052;DHT22;6592;47.484;9.726;2022-07-10T07:35:16;22.10;99.90
13052;DHT22;6592;47.484;9.726;2022-07-10T07:37:46;22.50;99.90
13052;DHT22;6592;47.484;9.726;2022-07-10T07:40:14;22.70;99.90
13052;DHT22;6592;47.484;9.726;2022-07-10T07:42:43;22.90;99.90
13052;DHT22;6592;47.484;9.726;2022-07-10T07:45:11;23.10;99.90
13052;DHT22;6592;47.484;9.726;2022-07-10T07:47:42;23.30;99.90
13052;DHT22;6592;47.484;9.726;2022-07-10T07:50:11;23.50;99.90
13052;DHT22;6592;47.484;9.726;2022-07-10T07:52:39;23.70;99.90
13052;DHT22;6592;47.484;9.726;2022-07-10T07:55:09;24.00;99.90
13052;DHT22;6592;47.484;9.726;2022-07-10T07:57:38;24.20;99.90
13052;DHT22;6592;47.484;9.726;2022-07-10T08:00:07;24.40;99.90
13052;DHT22;6592;47.484;9.726;2022-07-10T08:02:35;24.50;99.90
13052;DHT22;6592;47.484;9.726;2022-07-10T08:05:04;24.70;99.90
13052;DHT22;6592;47.484;9.726;2022-07-10T08:07:33;24.80;99.90
13052;DHT22;6592;47.484;9.726;2022-07-10T08:10:02;24.90;99.90
13052;DHT22;6592;47.484;9.726;2022-07-10T08:12:31;24.70;99.90
13052;DHT22;6592;47.484;9.726;2022-07-10T08:15:00;24.40;99.90
13052;DHT22;6592;47.484;9.726;2022-07-10T08:17:28;24.50;99.90
13052;DHT22;6592;47.484;9.726;2022-07-10T08:19:56;24.60;99.90
13052;DHT22;6592;47.484;9.726;2022-07-10T08:22:24;24.80;99.90
13052;DHT22;6592;47.484;9.726;2022-07-10T08:24:52;24.90;99.90
13052;DHT22;6592;47.484;9.726;2022-07-10T08:27:20;25.10;99.90
13052;DHT22;6592;47.484;9.726;2022-07-10T08:29:50;25.50;99.90
13052;DHT22;6592;47.484;9.726;2022-07-10T08:32:18;25.70;99.90
13052;DHT22;6592;47.484;9.726;2022-07-10T08:34:46;25.80;99.90
13052;DHT22;6592;47.484;9.726;2022-07-10T08:37:15;25.70;99.90
13052;DHT22;6592;47.484;9.726;2022-07-10T08:39:43;25.70;99.90
13052;DHT22;6592;47.484;9.726;2022-07-10T08:42:11;25.60;99.90
13052;DHT22;6592;47.484;9.726;2022-07-10T08:44:40;25.50;99.90
13052;DHT22;6592;47.484;9.726;2022-07-10T08:47:09;25.30;99.90
13052;DHT22;6592;47.484;9.726;2022-07-10T08:49:38;25.10;99.90
13052;DHT22;6592;47.484;9.726;2022-07-10T08:52:16;25.30;99.90
13052;DHT22;6592;47.484;9.726;2022-07-10T08:54:50;25.50;99.90
13052;DHT22;6592;47.484;9.726;2022-07-10T08:57:19;25.80;99.90
13052;DHT22;6592;47.484;9.726;2022-07-10T08:59:47;26.20;99.90
13052;DHT22;6592;47.484;9.726;2022-07-10T09:02:17;26.40;99.90
13052;DHT22;6592;47.484;9.726;2022-07-10T09:04:45;26.80;99.90
13052;DHT22;6592;47.484;9.726;2022-07-10T09:07:14;26.80;99.90
13052;DHT22;6592;47.484;9.726;2022-07-10T09:09:51;26.90;99.90
13052;DHT22;6592;47.484;9.726;2022-07-10T09:12:21;26.70;99.90
13052;DHT22;6592;47.484;9.726;2022-07-10T09:14:49;26.30;99.90
13052;DHT22;6592;47.484;9.726;2022-07-10T09:17:19;26.50;99.90
13052;DHT22;6592;47.484;9.726;2022-07-10T09:19:47;26.70;99.90
13052;DHT22;6592;47.484;9.726;2022-07-10T09:22:15;26.80;99.90
13052;DHT22;6592;47.484;9.726;2022-07-10T09:24:44;26.80;99.90
13052;DHT22;6592;47.484;9.726;2022-07-10T09:27:13;26.80;99.90
13052;DHT22;6592;47.484;9.726;2022-07-10T09:29:46;26.40;99.90
13052;DHT22;6592;47.484;9.726;2022-07-10T09:32:14;26.20;99.90
13052;DHT22;6592;47.484;9.726;2022-07-10T09:34:44;25.80;99.90
13052;DHT22;6592;47.484;9.726;2022-07-10T09:37:19;25.50;99.90
13052;DHT22;6592;47.484;9.726;2022-07-10T09:39:54;25.40;99.90
13052;DHT22;6592;47.484;9.726;2022-07-10T09:42:26;25.40;99.90
13052;DHT22;6592;47.484;9.726;2022-07-10T09:47:38;26.00;99.90
13052;DHT22;6592;47.484;9.726;2022-07-10T09:50:18;26.30;99.90
13052;DHT22;6592;47.484;9.726;2022-07-10T09:52:47;26.40;99.90
13052;DHT22;6592;47.484;9.726;2022-07-10T09:55:16;26.60;99.90
13052;DHT22;6592;47.484;9.726;2022-07-10T09:57:45;26.80;99.90
13052;DHT22;6592;47.484;9.726;2022-07-10T10:00:15;27.20;99.90
13052;DHT22;6592;47.484;9.726;2022-07-10T10:02:44;27.50;99.90
13052;DHT22;6592;47.484;9.726;2022-07-10T10:05:14;27.60;99.90
13052;DHT22;6592;47.484;9.726;2022-07-10T10:07:43;27.70;99.90
13052;DHT22;6592;47.484;9.726;2022-07-10T10:10:12;27.90;99.90
13052;DHT22;6592;47.484;9.726;2022-07-10T10:12:42;28.40;99.90
13052;DHT22;6592;47.484;9.726;2022-07-10T10:15:10;29.30;99.90
13052;DHT22;6592;47.484;9.726;2022-07-10T10:17:39;30.30;98.90
13052;DHT22;6592;47.484;9.726;2022-07-10T10:20:08;31.50;96.40
13052;DHT22;6592;47.484;9.726;2022-07-10T10:22:55;31.80;93.90
13052;DHT22;6592;47.484;9.726;2022-07-10T10:25:26;31.80;93.60
13052;DHT22;6592;47.484;9.726;2022-07-10T10:27:54;32.20;92.30
13052;DHT22;6592;47.484;9.726;2022-07-10T10:30:23;31.90;90.80
13052;DHT22;6592;47.484;9.726;2022-07-10T10:32:51;32.10;91.20
13052;DHT22;6592;47.484;9.726;2022-07-10T10:38:03;33.20;88.70
13052;DHT22;6592;47.484;9.726;2022-07-10T10:40:32;34.20;81.10
13052;DHT22;6592;47.484;9.726;2022-07-10T10:43:14;34.50;75.60
13052;DHT22;6592;47.484;9.726;2022-07-10T10:45:43;34.20;74.00
13052;DHT22;6592;47.484;9.726;2022-07-10T10:48:12;34.40;72.30
13052;DHT22;6592;47.484;9.726;2022-07-10T10:51:01;34.90;76.70
13052;DHT22;6592;47.484;9.726;2022-07-10T10:53:30;35.20;74.70
13052;DHT22;6592;47.484;9.726;2022-07-10T10:58:45;35.50;70.90
13052;DHT22;6592;47.484;9.726;2022-07-10T11:01:26;35.90;71.80
13052;DHT22;6592;47.484;9.726;2022-07-10T11:06:43;36.40;62.80
13052;DHT22;6592;47.484;9.726;2022-07-10T11:09:28;36.80;67.70
13052;DHT22;6592;47.484;9.726;2022-07-10T11:11:59;37.10;62.90
13052;DHT22;6592;47.484;9.726;2022-07-10T11:14:28;36.60;58.70
13052;DHT22;6592;47.484;9.726;2022-07-10T11:16:56;36.30;58.70
13052;DHT22;6592;47.484;9.726;2022-07-10T11:19:25;35.80;59.90
13052;DHT22;6592;47.484;9.726;2022-07-10T11:24:45;35.40;66.80
13052;DHT22;6592;47.484;9.726;2022-07-10T11:29:58;35.20;63.40
13052;DHT22;6592;47.484;9.726;2022-07-10T11:32:27;35.40;61.70
13052;DHT22;6592;47.484;9.726;2022-07-10T11:34:55;34.90;57.10
13052;DHT22;6592;47.484;9.726;2022-07-10T11:37:23;33.50;60.60
13052;DHT22;6592;47.484;9.726;2022-07-10T11:40:09;33.10;64.10
13052;DHT22;6592;47.484;9.726;2022-07-10T11:42:50;32.90;64.40
13052;DHT22;6592;47.484;9.726;2022-07-10T11:45:23;33.50;63.90
13052;DHT22;6592;47.484;9.726;2022-07-10T11:47:51;34.00;61.60
13052;DHT22;6592;47.484;9.726;2022-07-10T11:50:19;33.80;60.20
13052;DHT22;6592;47.484;9.726;2022-07-10T11:52:47;34.20;61.40
13052;DHT22;6592;47.484;9.726;2022-07-10T11:55:18;34.40;59.80
13052;DHT22;6592;47.484;9.726;2022-07-10T11:57:47;34.50;58.70
13052;DHT22;6592;47.484;9.726;2022-07-10T12:00:23;34.10;61.20
13052;DHT22;6592;47.484;9.726;2022-07-10T12:02:51;33.50;58.60
13052;DHT22;6592;47.484;9.726;2022-07-10T12:05:29;33.10;59.90
13052;DHT22;6592;47.484;9.726;2022-07-10T12:07:58;33.00;60.10
13052;DHT22;6592;47.484;9.726;2022-07-10T12:10:27;32.80;60.80
13052;DHT22;6592;47.484;9.726;2022-07-10T12:13:02;32.90;62.70
13052;DHT22;6592;47.484;9.726;2022-07-10T12:15:31;33.10;64.70
13052;DHT22;6592;47.484;9.726;2022-07-10T12:17:59;33.20;60.50
13052;DHT22;6592;47.484;9.726;2022-07-10T12:20:27;33.10;60.10
13052;DHT22;6592;47.484;9.726;2022-07-10T12:22:56;33.00;61.00
13052;DHT22;6592;47.484;9.726;2022-07-10T12:25:24;32.90;60.30
13052;DHT22;6592;47.484;9.726;2022-07-10T12:27:57;33.10;58.50
13052;DHT22;6592;47.484;9.726;2022-07-10T12:30:38;33.20;61.10
13052;DHT22;6592;47.484;9.726;2022-07-10T12:33:10;33.00;57.70
13052;DHT22;6592;47.484;9.726;2022-07-10T12:35:46;32.60;60.00
13052;DHT22;6592;47.484;9.726;2022-07-10T12:38:15;32.70;63.60
13052;DHT22;6592;47.484;9.726;2022-07-10T12:40:43;32.40;63.90
13052;DHT22;6592;47.484;9.726;2022-07-10T12:43:13;32.20;60.00
13052;DHT22;6592;47.484;9.726;2022-07-10T12:48:34;31.40;63.70
13052;DHT22;6592;47.484;9.726;2022-07-10T12:53:45;30.90;63.90
13052;DHT22;6592;47.484;9.726;2022-07-10T12:56:25;30.70;66.30
13052;DHT22;6592;47.484;9.726;2022-07-10T12:58:55;30.50;66.50
13052;DHT22;6592;47.484;9.726;2022-07-10T13:01:23;30.30;66.20
13052;DHT22;6592;47.484;9.726;2022-07-10T13:03:57;30.10;61.10
13052;DHT22;6592;47.484;9.726;2022-07-10T13:06:25;29.70;63.70
13052;DHT22;6592;47.484;9.726;2022-07-10T13:08:54;29.60;67.00
13052;DHT22;6592;47.484;9.726;2022-07-10T13:11:22;29.40;63.60
13052;DHT22;6592;47.484;9.726;2022-07-10T13:13:50;29.30;67.20
13052;DHT22;6592;47.484;9.726;2022-07-10T13:16:19;29.10;63.30
13052;DHT22;6592;47.484;9.726;2022-07-10T13:18:48;29.00;67.00
13052;DHT22;6592;47.484;9.726;2022-07-10T13:21:16;28.90;65.70
13052;DHT22;6592;47.484;9.726;2022-07-10T13:23:44;28.60;63.50
13052;DHT22;6592;47.484;9.726;2022-07-10T13:26:14;28.40;64.20
13052;DHT22;6592;47.484;9.726;2022-07-10T13:28:42;28.40;65.20
13052;DHT22;6592;47.484;9.726;2022-07-10T13:31:11;28.30;63.10
13052;DHT22;6592;47.484;9.726;2022-07-10T13:33:40;28.20;63.40
13052;DHT22;6592;47.484;9.726;2022-07-10T13:36:09;28.00;68.20
13052;DHT22;6592;47.484;9.726;2022-07-10T13:38:37;27.90;70.60
13052;DHT22;6592;47.484;9.726;2022-07-10T13:41:05;27.90;68.00
13052;DHT22;6592;47.484;9.726;2022-07-10T13:43:34;27.90;63.40
13052;DHT22;6592;47.484;9.726;2022-07-10T13:46:02;27.80;62.90
13052;DHT22;6592;47.484;9.726;2022-07-10T13:48:30;27.80;66.40
13052;DHT22;6592;47.484;9.726;2022-07-10T13:51:00;27.90;67.40
13052;DHT22;6592;47.484;9.726;2022-07-10T13:53:28;28.00;69.10
13052;DHT22;6592;47.484;9.726;2022-07-10T13:55:56;27.90;66.00
13052;DHT22;6592;47.484;9.726;2022-07-10T13:58:24;27.60;64.20
13052;DHT22;6592;47.484;9.726;2022-07-10T14:00:52;27.50;65.80
13052;DHT22;6592;47.484;9.726;2022-07-10T14:03:20;27.30;63.50
13052;DHT22;6592;47.484;9.726;2022-07-10T14:05:49;27.30;64.50
13052;DHT22;6592;47.484;9.726;2022-07-10T14:08:18;27.00;66.80
13052;DHT22;6592;47.484;9.726;2022-07-10T14:10:46;27.30;67.70
13052;DHT22;6592;47.484;9.726;2022-07-10T14:13:14;27.40;66.10
13052;DHT22;6592;47.484;9.726;2022-07-10T14:15:43;27.50;70.40
13052;DHT22;6592;47.484;9.726;2022-07-10T14:18:12;27.40;69.10
13052;DHT22;6592;47.484;9.726;2022-07-10T14:20:40;27.70;68.10
13052;DHT22;6592;47.484;9.726;2022-07-10T14:23:28;27.80;67.80
13052;DHT22;6592;47.484;9.726;2022-07-10T14:25:56;27.90;66.50
13052;DHT22;6592;47.484;9.726;2022-07-10T14:28:24;27.90;62.30
13052;DHT22;6592;47.484;9.726;2022-07-10T14:30:52;27.80;66.90
13052;DHT22;6592;47.484;9.726;2022-07-10T14:33:20;27.70;71.80
13052;DHT22;6592;47.484;9.726;2022-07-10T14:35:49;27.50;66.50
13052;DHT22;6592;47.484;9.726;2022-07-10T14:38:17;27.60;70.40
13052;DHT22;6592;47.484;9.726;2022-07-10T14:40:46;27.60;69.40
13052;DHT22;6592;47.484;9.726;2022-07-10T14:43:14;27.70;74.50
13052;DHT22;6592;47.484;9.726;2022-07-10T14:45:42;27.80;72.90
13052;DHT22;6592;47.484;9.726;2022-07-10T14:48:23;27.90;68.50
13052;DHT22;6592;47.484;9.726;2022-07-10T14:50:52;28.00;68.00
13052;DHT22;6592;47.484;9.726;2022-07-10T14:53:20;27.90;64.80
13052;DHT22;6592;47.484;9.726;2022-07-10T14:55:49;27.80;68.10
13052;DHT22;6592;47.484;9.726;2022-07-10T14:58:18;27.80;66.60
13052;DHT22;6592;47.484;9.726;2022-07-10T15:00:46;27.60;68.80
13052;DHT22;6592;47.484;9.726;2022-07-10T15:03:14;27.60;68.60
13052;DHT22;6592;47.484;9.726;2022-07-10T15:05:42;27.60;70.20
13052;DHT22;6592;47.484;9.726;2022-07-10T15:08:10;27.60;68.10
13052;DHT22;6592;47.484;9.726;2022-07-10T15:10:45;27.60;72.00
13052;DHT22;6592;47.484;9.726;2022-07-10T15:13:15;27.60;71.10
13052;DHT22;6592;47.484;9.726;2022-07-10T15:15:43;27.40;70.00
13052;DHT22;6592;47.484;9.726;2022-07-10T15:18:11;27.40;69.00
13052;DHT22;6592;47.484;9.726;2022-07-10T15:20:39;27.30;69.50
13052;DHT22;6592;47.484;9.726;2022-07-10T15:23:07;27.30;70.20
13052;DHT22;6592;47.484;9.726;2022-07-10T15:25:36;27.30;70.80
13052;DHT22;6592;47.484;9.726;2022-07-10T15:28:06;27.30;71.50
13052;DHT22;6592;47.484;9.726;2022-07-10T15:30:36;27.40;71.20
13052;DHT22;6592;47.484;9.726;2022-07-10T15:33:05;27.40;70.20
13052;DHT22;6592;47.484;9.726;2022-07-10T15:35:34;27.50;71.60
13052;DHT22;6592;47.484;9.726;2022-07-10T15:38:04;27.60;72.60
13052;DHT22;6592;47.484;9.726;2022-07-10T15:40:32;27.60;71.50
13052;DHT22;6592;47.484;9.726;2022-07-10T15:43:01;27.70;74.30
13052;DHT22;6592;47.484;9.726;2022-07-10T15:45:29;27.80;73.90
13052;DHT22;6592;47.484;9.726;2022-07-10T15:48:00;27.80;73.50
13052;DHT22;6592;47.484;9.726;2022-07-10T15:50:28;27.60;72.10
13052;DHT22;6592;47.484;9.726;2022-07-10T15:53:00;27.70;72.90
13052;DHT22;6592;47.484;9.726;2022-07-10T15:55:29;27.60;74.60
13052;DHT22;6592;47.484;9.726;2022-07-10T15:57:57;27.50;74.50
13052;DHT22;6592;47.484;9.726;2022-07-10T16:00:25;27.50;75.20
13052;DHT22;6592;47.484;9.726;2022-07-10T16:02:53;27.60;75.80
13052;DHT22;6592;47.484;9.726;2022-07-10T16:05:26;27.60;75.40
13052;DHT22;6592;47.484;9.726;2022-07-10T16:07:54;27.50;76.60
13052;DHT22;6592;47.484;9.726;2022-07-10T16:10:22;27.50;74.50
13052;DHT22;6592;47.484;9.726;2022-07-10T16:12:50;27.60;75.60
13052;DHT22;6592;47.484;9.726;2022-07-10T16:15:18;27.70;76.00
13052;DHT22;6592;47.484;9.726;2022-07-10T16:17:46;27.70;75.30
13052;DHT22;6592;47.484;9.726;2022-07-10T16:20:14;27.70;74.80